Time;durP1;ratioP1;P1;durP2;ratioP2;P2;SDS_P1;SDS_P2;PMS_P1;PMS_P2;Temp;Humidity;BMP_temperature;BMP_pressure;BME280_temperature;BME280_humidity;BME280_pressure;Samples;Min_cycle;Max_cycle;Signal;HPM_P1;HPM_P2
2022/03/18 00:00:24;;;;;;;9.70;6.73;;;;;;;2.15;100.00;101400.28;5090807;28;20195;-50
2022/03/18 00:02:52;;;;;;;9.97;7.13;;;;;;;2.05;100.00;101405.00;5092009;28;20706;-49
2022/03/18 00:05:19;;;;;;;11.37;8.60;;;;;;;2.11;100.00;101398.44;5091999;28;20222;-50
2022/03/18 00:07:46;;;;;;;25.17;12.47;;;;;;;2.06;100.00;101396.50;5091755;28;20191;-50
2022/03/18 00:10:13;;;;;;;24.97;9.60;;;;;;;2.10;100.00;101401.81;5091832;28;20728;-49
2022/03/18 00:12:41;;;;;;;11.90;7.23;;;;;;;2.15;100.00;101409.63;5091684;28;20195;-49
2022/03/18 00:15:11;;;;;;;11.87;8.50;;;;;;;2.14;100.00;101402.81;5091415;28;20196;-49
2022/03/18 00:17:38;;;;;;;16.27;10.17;;;;;;;2.14;100.00;101413.06;5091430;28;20199;-52
2022/03/18 00:20:07;;;;;;;14.73;7.40;;;;;;;2.25;100.00;101405.75;5091424;28;20192;-52
2022/03/18 00:22:34;;;;;;;12.77;8.70;;;;;;;2.24;100.00;101409.13;5091520;28;20302;-52
2022/03/18 00:25:01;;;;;;;12.10;7.50;;;;;;;2.06;100.00;101410.19;5091080;28;20234;-52
2022/03/18 00:27:28;;;;;;;13.60;9.40;;;;;;;2.09;100.00;101410.31;5091326;28;20705;-52
2022/03/18 00:29:56;;;;;;;10.83;7.47;;;;;;;2.02;100.00;101407.50;5091357;28;20573;-53
2022/03/18 00:32:25;;;;;;;9.57;6.13;;;;;;;2.08;100.00;101398.31;5090966;28;20290;-51
2022/03/18 00:34:52;;;;;;;8.87;7.67;;;;;;;2.12;100.00;101404.44;5091045;28;20208;-52
2022/03/18 00:37:19;;;;;;;8.10;6.37;;;;;;;1.96;100.00;101397.88;5091073;28;20592;-50
2022/03/18 00:39:46;;;;;;;6.47;5.90;;;;;;;1.97;100.00;101404.75;5091172;28;20192;-51
2022/03/18 00:42:13;;;;;;;10.60;6.77;;;;;;;1.81;100.00;101371.72;5091054;28;20199;-52
2022/03/18 00:44:41;;;;;;;8.67;6.50;;;;;;;1.96;100.00;101399.56;5090919;28;20202;-49
2022/03/18 00:52:03;;;;;;;6.97;6.20;;;;;;;1.87;100.00;101402.69;5090937;28;20306;-50
2022/03/18 00:52:41;;;;;;;9.23;6.00;;;;;;;1.83;100.00;101391.44;5090890;28;20691;-52
2022/03/18 00:55:09;;;;;;;7.90;6.20;;;;;;;1.75;100.00;101397.97;5090883;28;20771;-52
2022/03/18 00:57:36;;;;;;;5.67;5.23;;;;;;;1.70;100.00;101398.59;5090985;28;20205;-52
2022/03/18 01:00:05;;;;;;;7.33;5.53;;;;;;;1.71;100.00;101413.16;5090660;28;20195;-51
2022/03/18 01:02:32;;;;;;;6.37;5.77;;;;;;;1.71;100.00;101406.34;5090581;28;20203;-52
2022/03/18 01:05:00;;;;;;;7.67;6.50;;;;;;;1.73;100.00;101409.84;5090378;28;20214;-52
2022/03/18 01:07:28;;;;;;;6.13;5.53;;;;;;;1.76;100.00;101415.09;5090558;28;20745;-52
2022/03/18 01:09:56;;;;;;;7.93;6.13;;;;;;;1.76;100.00;101424.44;5090083;28;20203;-52
2022/03/18 01:12:22;;;;;;;7.07;6.33;;;;;;;1.76;100.00;101424.44;5090379;28;20195;-52
2022/03/18 01:14:50;;;;;;;8.30;5.60;;;;;;;1.54;100.00;101404.88;5090470;28;20294;-48
2022/03/18 01:17:17;;;;;;;12.80;5.80;;;;;;;1.45;100.00;101397.72;5090435;28;20191;-50
2022/03/18 01:19:44;;;;;;;10.90;6.20;;;;;;;1.69;100.00;101422.50;5090550;28;20195;-52
2022/03/18 01:22:12;;;;;;;7.80;6.13;;;;;;;1.69;100.00;101432.72;5090344;28;20202;-49
2022/03/18 01:24:39;;;;;;;6.23;5.10;;;;;;;1.68;100.00;101430.97;5090498;28;20616;-50
2022/03/18 01:27:07;;;;;;;8.83;6.70;;;;;;;1.59;100.00;101425.50;5090461;28;20226;-49
2022/03/18 01:29:34;;;;;;;7.53;6.53;;;;;;;1.69;100.00;101432.72;5090364;28;20199;-49
2022/03/18 01:32:01;;;;;;;7.97;6.37;;;;;;;1.84;100.00;101438.41;5090451;28;20576;-51
2022/03/18 01:34:28;;;;;;;6.33;5.70;;;;;;;1.78;100.00;101438.19;5090156;28;20199;-51
2022/03/18 01:36:55;;;;;;;12.00;6.37;;;;;;;1.65;100.00;101434.28;5090085;28;20580;-52
2022/03/18 01:39:24;;;;;;;8.77;6.30;;;;;;;1.66;100.00;101437.72;5090338;28;20579;-51
2022/03/18 01:41:51;;;;;;;7.57;6.43;;;;;;;1.67;100.00;101440.34;5090140;28;20195;-52
2022/03/18 01:44:20;;;;;;;8.20;5.60;;;;;;;1.72;100.00;101443.06;5090165;28;20635;-52
2022/03/18 01:46:47;;;;;;;7.10;5.23;;;;;;;1.69;100.00;101438.69;5089951;28;20698;-51
2022/03/18 01:49:14;;;;;;;6.00;4.87;;;;;;;1.75;100.00;101449.19;5090358;28;20195;-51
2022/03/18 01:51:41;;;;;;;5.70;5.20;;;;;;;1.65;100.00;101447.09;5090069;28;20666;-52
2022/03/18 01:56:54;;;;;;;10.83;5.50;;;;;;;1.70;100.00;101453.25;5090291;28;20195;-49
2022/03/18 01:59:21;;;;;;;8.37;5.70;;;;;;;1.75;100.00;101456.88;5090049;28;20211;-49
2022/03/18 02:01:48;;;;;;;6.33;5.47;;;;;;;1.76;100.00;101461.16;5089955;28;20203;-49
2022/03/18 02:04:15;;;;;;;8.43;6.00;;;;;;;1.81;100.00;101471.56;5090454;28;20196;-51
2022/03/18 02:06:43;;;;;;;8.00;5.90;;;;;;;1.65;100.00;101430.84;5090017;28;20251;-49
2022/03/18 02:09:10;;;;;;;6.97;5.60;;;;;;;1.86;100.00;101467.50;5090027;28;20241;-49
2022/03/18 02:11:38;;;;;;;8.27;6.53;;;;;;;1.87;100.00;101468.38;5089900;28;20249;-49
2022/03/18 02:14:07;;;;;;;11.70;6.10;;;;;;;1.80;100.00;101469.84;5089989;28;20191;-51
2022/03/18 02:16:34;;;;;;;9.23;6.63;;;;;;;1.85;100.00;101468.31;5089557;28;20191;-50
2022/03/18 02:19:01;;;;;;;6.90;6.00;;;;;;;1.79;100.00;101474.09;5089653;28;20195;-49
2022/03/18 02:21:29;;;;;;;8.77;6.87;;;;;;;1.87;100.00;101479.50;5090010;28;20207;-49
2022/03/18 02:23:57;;;;;;;8.83;5.80;;;;;;;1.84;100.00;101471.69;5093354;28;20636;-49
2022/03/18 02:26:24;;;;;;;8.83;5.90;;;;;;;1.95;100.00;101470.41;5093323;28;20226;-49
2022/03/18 02:28:52;;;;;;;7.10;5.97;;;;;;;2.01;100.00;101478.31;5093645;28;20582;-53
2022/03/18 02:31:20;;;;;;;9.57;5.90;;;;;;;2.08;100.00;101477.72;5093540;28;20199;-52
2022/03/18 02:33:47;;;;;;;6.40;5.37;;;;;;;2.18;100.00;101484.94;5093927;28;20210;-51
2022/03/18 02:36:14;;;;;;;6.70;5.17;;;;;;;2.21;100.00;101478.19;5093764;28;20282;-52
2022/03/18 02:38:42;;;;;;;5.70;5.10;;;;;;;2.13;100.00;101480.47;5093357;28;20197;-52
2022/03/18 02:41:11;;;;;;;10.77;5.77;;;;;;;2.02;100.00;101479.19;5093290;28;20204;-52
2022/03/18 02:43:39;;;;;;;8.43;5.87;;;;;;;2.03;100.00;101484.34;5093187;28;20207;-52
2022/03/18 02:46:06;;;;;;;6.90;5.60;;;;;;;1.99;100.00;101485.06;5093166;28;20703;-51
2022/03/18 02:48:33;;;;;;;6.87;6.10;;;;;;;1.91;100.00;101485.63;5093181;28;20192;-52
2022/03/18 02:51:00;;;;;;;7.67;5.80;;;;;;;1.88;100.00;101493.16;5093346;28;20647;-52
2022/03/18 02:53:27;;;;;;;6.80;5.60;;;;;;;1.87;100.00;101489.72;5093238;28;20226;-51
2022/03/18 02:55:54;;;;;;;7.87;5.80;;;;;;;2.00;100.00;101486.81;5093083;28;20199;-52
2022/03/18 02:58:23;;;;;;;7.97;5.60;;;;;;;1.97;100.00;101491.81;5092833;28;20241;-52
2022/03/18 03:00:51;;;;;;;7.27;5.63;;;;;;;1.91;100.00;101504.41;5093343;28;20634;-52
2022/03/18 03:03:18;;;;;;;7.47;6.47;;;;;;;1.95;100.00;101501.13;5093177;28;20199;-50
2022/03/18 03:08:31;;;;;;;10.17;5.83;;;;;;;2.04;100.00;101508.28;5092987;28;20249;-49
2022/03/18 03:10:59;;;;;;;11.70;6.20;;;;;;;2.08;100.00;101511.03;5092680;28;20200;-50
2022/03/18 03:13:27;;;;;;;8.40;6.47;;;;;;;1.94;100.00;101512.19;5092705;28;20196;-50
2022/03/18 03:15:54;;;;;;;8.43;6.13;;;;;;;2.00;100.00;101506.44;5092576;28;20191;-50
2022/03/18 03:18:21;;;;;;;8.87;6.20;;;;;;;1.90;100.00;101515.47;5092562;28;20199;-51
2022/03/18 03:20:49;;;;;;;7.73;5.97;;;;;;;2.02;100.00;101508.25;5092877;28;20221;-49
2022/03/18 03:23:16;;;;;;;14.30;7.17;;;;;;;2.13;100.00;101514.66;5092638;28;20591;-50
2022/03/18 03:25:43;;;;;;;8.47;5.93;;;;;;;2.13;100.00;101512.09;5092127;28;20231;-50
2022/03/18 03:28:10;;;;;;;8.10;6.17;;;;;;;2.06;100.00;101514.34;5092680;28;20746;-49
2022/03/18 03:30:38;;;;;;;6.83;6.13;;;;;;;2.11;100.00;101506.03;5092397;28;20203;-50
2022/03/18 03:33:05;;;;;;;8.93;6.93;;;;;;;2.24;100.00;101532.09;5092307;28;20675;-49
2022/03/18 03:35:35;;;;;;;9.07;6.50;;;;;;;2.16;100.00;101527.53;5092267;28;20195;-49
2022/03/18 03:38:02;;;;;;;13.57;7.73;;;;;;;2.09;100.00;101532.38;5092195;28;20401;-50
2022/03/18 03:40:29;;;;;;;9.63;7.90;;;;;;;2.08;100.00;101536.63;5092371;28;20561;-50
2022/03/18 03:42:56;;;;;;;12.97;8.77;;;;;;;2.17;100.00;101529.28;5092555;28;20645;-50
2022/03/18 03:45:23;;;;;;;16.20;8.27;;;;;;;2.00;100.00;101540.59;5092036;28;20210;-49
2022/03/18 03:47:52;;;;;;;11.10;8.00;;;;;;;1.92;100.00;101534.28;5092150;28;20230;-50
2022/03/18 03:50:19;;;;;;;16.37;8.63;;;;;;;1.94;100.00;101537.78;5092205;28;20196;-53
2022/03/18 03:52:46;;;;;;;9.93;7.50;;;;;;;1.94;100.00;101536.91;5091971;28;20200;-50
2022/03/18 03:55:13;;;;;;;10.07;8.10;;;;;;;1.85;100.00;101539.13;5091720;28;20578;-49
2022/03/18 03:57:41;;;;;;;11.80;8.17;;;;;;;1.82;100.00;101551.00;5092118;28;20671;-51
2022/03/18 04:00:08;;;;;;;11.23;8.47;;;;;;;1.74;100.00;101554.97;5092026;28;20195;-50
2022/03/18 04:02:37;;;;;;;11.10;8.47;;;;;;;1.58;100.00;101526.16;5091865;28;20686;-50
2022/03/18 04:05:07;;;;;;;13.97;8.43;;;;;;;1.75;100.00;101556.72;5091669;28;20206;-50
2022/03/18 04:07:34;;;;;;;10.50;8.40;;;;;;;1.70;100.00;101557.31;5091814;28;20216;-49
2022/03/18 04:10:01;;;;;;;12.13;8.67;;;;;;;1.72;100.00;101563.38;5091812;28;20202;-50
2022/03/18 04:12:29;;;;;;;12.07;8.43;;;;;;;1.65;100.00;101559.72;5091106;28;20199;-49
2022/03/18 04:14:56;;;;;;;13.10;8.53;;;;;;;1.59;100.00;101561.13;5080028;28;20223;-50
2022/03/18 04:17:26;;;;;;;15.83;9.80;;;;;;;1.32;100.00;101533.66;5080882;28;20187;-50
2022/03/18 04:19:53;;;;;;;11.90;9.23;;;;;;;1.53;100.00;101563.47;5083660;28;20187;-50
2022/03/18 04:22:21;;;;;;;13.83;9.47;;;;;;;1.56;100.00;101558.47;5091636;28;20199;-49
2022/03/18 04:24:48;;;;;;;13.83;9.70;;;;;;;1.61;100.00;101564.63;5088097;28;20234;-49
2022/03/18 04:27:15;;;;;;;12.43;8.30;;;;;;;1.50;100.00;101566.78;5071102;28;20750;-49
2022/03/18 04:29:42;;;;;;;10.10;8.37;;;;;;;1.50;100.00;101569.31;5070900;28;20228;-49
2022/03/18 04:32:11;;;;;;;8.73;7.93;;;;;;;1.36;100.00;101566.19;5070499;28;20223;-49
2022/03/18 04:34:38;;;;;;;11.27;8.07;;;;;;;1.60;100.00;101566.31;5086517;28;20250;-49
2022/03/18 04:37:06;;;;;;;15.93;8.27;;;;;;;1.43;100.00;101560.53;5090339;28;20225;-50
2022/03/18 04:39:34;;;;;;;12.10;9.40;;;;;;;1.68;100.00;101579.44;5090610;28;20786;-50
2022/03/18 04:42:01;;;;;;;13.60;10.17;;;;;;;1.72;100.00;101579.63;5090135;28;20219;-50
2022/03/18 04:44:28;;;;;;;14.03;9.43;;;;;;;1.65;100.00;101585.31;5089423;28;20326;-49
2022/03/18 04:46:55;;;;;;;21.07;10.27;;;;;;;1.46;100.00;101580.28;5087518;28;20322;-50
2022/03/18 04:49:22;;;;;;;17.17;11.30;;;;;;;1.49;100.00;101584.63;5083573;28;20215;-50
2022/03/18 04:51:49;;;;;;;17.63;11.60;;;;;;;1.62;100.00;101589.44;5087913;28;20260;-50
2022/03/18 04:54:16;;;;;;;22.00;13.40;;;;;;;1.64;100.00;101591.25;5078028;28;20216;-49
2022/03/18 04:59:28;;;;;;;20.10;13.60;;;;;;;1.70;100.00;101593.16;5089914;28;20222;-48
2022/03/18 05:01:55;;;;;;;20.97;12.67;;;;;;;1.76;100.00;101601.97;5088266;28;20235;-51
2022/03/18 05:04:22;;;;;;;17.27;12.90;;;;;;;1.74;100.00;101595.91;5086060;28;20219;-48
2022/03/18 05:06:49;;;;;;;18.80;12.73;;;;;;;1.87;100.00;101604.09;5087624;28;20243;-47
2022/03/18 05:09:16;;;;;;;25.00;15.97;;;;;;;1.94;100.00;101609.50;5085890;28;20474;-48
2022/03/18 05:11:45;;;;;;;23.70;15.47;;;;;;;2.04;100.00;101603.03;5090051;28;20650;-49
2022/03/18 05:14:11;;;;;;;28.53;16.03;;;;;;;2.14;100.00;101607.75;5086730;28;20342;-49
2022/03/18 05:16:42;;;;;;;24.20;15.70;;;;;;;2.26;100.00;101607.34;5080844;28;20624;-50
2022/03/18 05:19:09;;;;;;;30.90;20.47;;;;;;;2.21;100.00;101613.97;5085982;28;20220;-47
2022/03/18 05:21:36;;;;;;;24.67;16.53;;;;;;;2.36;100.00;101612.00;5088837;28;20222;-49
2022/03/18 05:24:03;;;;;;;26.33;16.37;;;;;;;2.37;100.00;101619.72;5088486;28;20216;-49
2022/03/18 05:26:30;;;;;;;24.97;16.67;;;;;;;2.39;100.00;101615.53;5088603;28;20274;-48
2022/03/18 05:28:59;;;;;;;27.87;16.67;;;;;;;2.62;100.00;101628.31;5088413;28;20613;-48
2022/03/18 05:31:26;;;;;;;26.70;14.77;;;;;;;3.44;100.00;101627.00;5089130;28;20225;-49
2022/03/18 05:33:54;;;;;;;29.07;17.37;;;;;;;4.32;100.00;101596.41;5087837;28;20225;-49
2022/03/18 05:36:21;;;;;;;38.90;21.00;;;;;;;5.85;100.00;101637.47;5088182;28;20576;-48
2022/03/18 05:38:48;;;;;;;29.93;16.93;;;;;;;7.10;94.81;101651.44;5087420;28;20219;-49
2022/03/18 05:41:15;;;;;;;28.50;17.00;;;;;;;8.58;87.17;101653.88;5089137;28;20250;-51
2022/03/18 05:43:42;;;;;;;33.83;19.40;;;;;;;9.25;83.02;101658.19;5089130;28;20222;-49
2022/03/18 05:46:11;;;;;;;30.53;18.07;;;;;;;9.69;77.89;101639.59;5089896;28;20223;-49
2022/03/18 05:48:38;;;;;;;33.63;19.43;;;;;;;10.47;74.24;101672.22;5089479;28;20661;-50
2022/03/18 05:51:05;;;;;;;30.40;18.03;;;;;;;9.95;71.29;101643.25;5089427;28;20703;-50
2022/03/18 05:53:32;;;;;;;16.97;12.37;;;;;;;10.66;71.01;101662.78;5088641;28;20286;-49
2022/03/18 05:58:44;;;;;;;12.73;10.00;;;;;;;12.81;60.93;101675.13;5072764;28;20246;-52
2022/03/18 06:01:12;;;;;;;11.50;8.77;;;;;;;13.27;57.75;101686.28;5073650;28;20310;-49
2022/03/18 06:03:40;;;;;;;8.93;7.87;;;;;;;13.14;55.63;101691.50;5092898;28;20222;-49
2022/03/18 06:06:07;;;;;;;13.63;9.70;;;;;;;13.74;52.56;101692.94;5091987;28;20267;-49
2022/03/18 06:14:15;;;;;;;10.90;9.07;;;;;;;15.62;46.51;101700.53;5030322;28;20213;-53
2022/03/18 06:16:44;;;;;;;10.07;9.17;;;;;;;16.57;43.50;101691.94;5078035;28;20218;-52
2022/03/18 06:19:11;;;;;;;13.83;9.70;;;;;;;17.08;41.32;101700.56;5093245;28;20246;-53
2022/03/18 06:21:38;;;;;;;14.50;10.77;;;;;;;17.24;40.43;101701.97;5093066;28;20223;-52
2022/03/18 06:24:06;;;;;;;12.50;8.60;;;;;;;16.72;40.12;101689.03;5093120;28;20655;-52
2022/03/18 06:26:33;;;;;;;12.40;9.97;;;;;;;17.14;39.43;101695.19;5092784;28;20322;-53
2022/03/18 06:29:00;;;;;;;11.70;9.37;;;;;;;17.22;37.35;101701.16;5092087;28;20226;-54
2022/03/18 06:31:27;;;;;;;14.33;9.53;;;;;;;17.12;37.61;101702.25;5093053;28;20215;-53
2022/03/18 06:33:56;;;;;;;15.93;10.30;;;;;;;17.23;37.21;101704.63;5092732;28;20223;-52
2022/03/18 06:36:22;;;;;;;12.67;9.77;;;;;;;17.65;36.70;101705.47;5092954;28;20225;-52
2022/03/18 06:38:49;;;;;;;11.80;9.63;;;;;;;18.28;35.70;101697.78;5092557;28;20223;-52
2022/03/18 06:41:16;;;;;;;11.85;10.65;;;;;;;18.81;34.57;101703.41;5074136;28;20309;-54
2022/03/18 06:43:44;;;;;;;15.98;12.70;;;;;;;18.94;34.25;101706.56;5073320;28;20596;-53
2022/03/18 06:46:12;;;;;;;22.27;15.88;;;;;;;19.19;33.60;101707.53;5073151;28;20199;-53
2022/03/18 06:48:39;;;;;;;38.70;24.70;;;;;;;19.19;33.01;101712.81;5072897;28;20281;-54
2022/03/18 06:51:07;;;;;;;26.67;19.10;;;;;;;18.80;34.39;101715.69;5073013;28;20196;-54
2022/03/18 06:53:34;;;;;;;68.60;50.10;;;;;;;18.80;32.82;101712.19;5072757;28;20283;-54
2022/03/18 06:56:01;;;;;;;27.98;20.02;;;;;;;19.08;32.18;101722.78;5072830;28;20200;-54
2022/03/18 06:58:28;;;;;;;21.40;14.00;;;;;;;19.52;30.18;101722.38;5073122;28;20721;-53
2022/03/18 07:00:55;;;;;;;13.85;12.38;;;;;;;19.61;30.09;101720.38;5072882;28;20195;-54
2022/03/18 07:03:22;;;;;;;14.70;13.02;;;;;;;20.11;29.46;101721.38;5072912;28;20662;-54
2022/03/18 07:05:50;;;;;;;16.63;11.88;;;;;;;20.05;29.68;101727.72;5072614;28;20274;-53
2022/03/18 07:08:18;;;;;;;11.77;10.02;;;;;;;20.39;28.36;101721.34;5072004;28;20220;-55
2022/03/18 07:10:45;;;;;;;15.00;10.82;;;;;;;21.66;27.22;101735.13;5072595;28;20196;-54
2022/03/18 07:13:12;;;;;;;12.55;11.20;;;;;;;20.84;27.29;101725.00;5072827;28;20196;-54
2022/03/18 07:15:39;;;;;;;12.65;11.32;;;;;;;20.00;28.92;101718.22;5072438;28;20291;-54
2022/03/18 07:18:05;;;;;;;11.80;8.57;;;;;;;19.40;27.08;101735.03;5072563;28;20214;-54
2022/03/18 07:20:33;;;;;;;9.82;8.18;;;;;;;20.61;26.06;101733.75;5072434;28;20196;-54
2022/03/18 07:23:04;;;;;;;8.93;7.78;;;;;;;20.30;25.15;101731.28;5072486;28;20622;-54
2022/03/18 07:25:33;;;;;;;9.80;8.05;;;;;;;19.45;25.88;101717.31;5083176;28;20239;-54
2022/03/18 07:28:00;;;;;;;8.23;7.35;;;;;;;19.39;25.39;101728.03;5092708;28;20314;-54
2022/03/18 07:30:27;;;;;;;9.43;8.40;;;;;;;20.53;25.02;101734.94;5092572;28;20581;-53
2022/03/18 07:32:54;;;;;;;11.30;6.90;;;;;;;21.82;23.54;101723.91;5092550;28;20433;-54
2022/03/18 07:35:22;;;;;;;7.55;6.95;;;;;;;22.21;23.29;101734.69;5092320;28;20196;-53
2022/03/18 07:37:49;;;;;;;8.48;6.55;;;;;;;20.52;21.58;101739.34;5092031;28;20191;-53
2022/03/18 07:40:18;;;;;;;7.85;6.00;;;;;;;19.76;22.77;101723.38;5092157;28;20199;-53
2022/03/18 07:42:48;;;;;;;8.00;7.32;;;;;;;20.26;22.71;101747.25;5092025;28;20235;-52
2022/03/18 07:45:20;;;;;;;9.63;8.73;;;;;;;19.51;23.99;101732.97;5092101;28;20234;-53
2022/03/18 07:47:49;;;;;;;9.77;7.30;;;;;;;18.34;25.30;101750.22;5091976;28;20229;-53
2022/03/18 07:50:20;;;;;;;8.57;7.70;;;;;;;17.64;25.48;101753.63;5092271;28;20716;-51
2022/03/18 07:52:49;;;;;;;12.68;7.22;;;;;;;15.63;26.89;101756.38;5092185;28;20196;-52
2022/03/18 07:55:17;;;;;;;9.80;7.33;;;;;;;14.29;28.92;101752.56;5091800;28;20200;-52
2022/03/18 07:57:44;;;;;;;7.57;6.83;;;;;;;13.86;29.58;101745.06;5091834;28;20280;-54
2022/03/18 08:00:14;;;;;;;7.23;6.17;;;;;;;13.58;29.60;101746.09;5091711;28;20203;-53
2022/03/18 08:02:41;;;;;;;8.17;7.47;;;;;;;12.90;30.32;101752.44;5091633;28;20201;-53
2022/03/18 08:05:08;;;;;;;13.13;7.97;;;;;;;13.55;30.34;101748.72;5091987;28;20685;-53
2022/03/18 08:07:36;;;;;;;10.07;8.30;;;;;;;13.10;30.41;101743.66;5091870;28;20235;-53
2022/03/18 08:10:04;;;;;;;9.43;6.63;;;;;;;12.18;32.00;101746.47;5091792;28;20201;-50
2022/03/18 08:12:32;;;;;;;6.60;6.10;;;;;;;11.34;33.08;101747.97;5091567;28;20682;-49
2022/03/18 08:15:00;;;;;;;7.20;6.50;;;;;;;10.04;36.24;101739.34;5091665;28;20191;-51
2022/03/18 08:17:29;;;;;;;9.57;7.63;;;;;;;8.97;38.45;101741.59;5091333;28;20191;-50
2022/03/18 08:19:56;;;;;;;8.87;7.03;;;;;;;8.44;39.77;101738.25;5090576;28;20207;-50
2022/03/18 08:22:23;;;;;;;18.97;10.97;;;;;;;8.61;42.25;101740.22;5091483;28;20192;-50
2022/03/18 08:24:51;;;;;;;11.67;8.10;;;;;;;8.85;40.11;101744.03;5091076;28;20241;-50
2022/03/18 08:27:18;;;;;;;6.27;5.73;;;;;;;8.93;38.53;101732.91;5091134;28;20732;-51
2022/03/18 08:29:46;;;;;;;8.23;5.70;;;;;;;9.01;37.22;101730.44;5090974;28;20261;-49
2022/03/18 08:32:14;;;;;;;6.27;5.77;;;;;;;8.79;37.42;101718.94;5091092;28;20200;-51
2022/03/18 08:34:43;;;;;;;7.27;6.33;;;;;;;8.65;36.99;101721.31;5091197;28;20256;-50
2022/03/18 08:37:11;;;;;;;8.37;5.50;;;;;;;8.44;37.76;101733.94;5091151;28;20199;-50
2022/03/18 08:39:38;;;;;;;6.47;5.10;;;;;;;7.92;36.16;101725.28;5091080;28;20192;-49
2022/03/18 08:42:06;;;;;;;8.50;5.70;;;;;;;7.50;37.63;101725.38;5091160;28;20278;-50
2022/03/18 08:44:33;;;;;;;6.00;5.40;;;;;;;7.55;37.77;101721.19;5091040;28;20195;-50
2022/03/18 08:47:00;;;;;;;6.50;5.67;;;;;;;7.50;39.19;101716.75;5091139;28;20195;-49
2022/03/18 08:49:27;;;;;;;9.17;6.97;;;;;;;7.79;40.92;101717.31;5090636;28;20229;-50
2022/03/18 08:51:57;;;;;;;7.07;5.77;;;;;;;7.97;39.67;101715.03;5091034;28;20662;-49
2022/03/18 08:54:24;;;;;;;6.83;6.13;;;;;;;7.74;39.52;101721.53;5090866;28;20280;-51
2022/03/18 08:56:51;;;;;;;8.20;6.10;;;;;;;7.75;39.32;101718.97;5090600;28;20234;-50
2022/03/18 08:59:20;;;;;;;8.37;6.10;;;;;;;7.49;40.04;101709.84;5090749;28;20662;-49
2022/03/18 09:01:47;;;;;;;6.50;6.00;;;;;;;7.42;40.75;101697.66;5090645;28;20253;-50
2022/03/18 09:04:14;;;;;;;7.03;6.33;;;;;;;7.68;40.21;101700.72;5090531;28;20195;-49
2022/03/18 09:06:41;;;;;;;9.57;6.17;;;;;;;7.85;40.36;101707.06;5090209;28;20683;-49
2022/03/18 09:09:09;;;;;;;10.63;5.83;;;;;;;7.99;40.30;101703.00;5090239;28;20306;-50
2022/03/18 09:11:36;;;;;;;10.90;7.37;;;;;;;7.98;40.13;101698.69;5069989;28;20594;-49
2022/03/18 09:14:03;;;;;;;11.00;7.63;;;;;;;8.35;39.49;101695.00;5068801;28;20222;-53
2022/03/18 09:16:33;;;;;;;7.87;6.57;;;;;;;8.55;38.38;101693.56;5068439;28;20290;-53
2022/03/18 09:19:00;;;;;;;6.83;5.70;;;;;;;8.24;39.49;101701.69;5069083;28;20192;-53
2022/03/18 09:21:27;;;;;;;12.93;7.50;;;;;;;8.07;37.53;101696.22;5069341;28;20589;-50
2022/03/18 09:23:54;;;;;;;24.33;11.27;;;;;;;7.62;39.70;101701.50;5068962;28;20195;-50
2022/03/18 09:26:22;;;;;;;8.77;6.63;;;;;;;7.66;39.44;101695.53;5069376;28;20265;-50
2022/03/18 09:28:49;;;;;;;11.27;6.80;;;;;;;7.58;39.33;101689.34;5069995;28;20219;-50
2022/03/18 09:31:16;;;;;;;8.63;6.20;;;;;;;7.61;39.81;101699.75;5069995;28;20295;-49
2022/03/18 09:33:43;;;;;;;13.43;9.20;;;;;;;7.65;39.90;101689.50;5070054;28;20202;-49
2022/03/18 09:36:10;;;;;;;22.83;12.43;;;;;;;7.80;41.60;101681.13;5070141;28;20539;-51
2022/03/18 09:38:38;;;;;;;13.97;8.30;;;;;;;7.62;41.33;101678.22;5069813;28;20623;-50
2022/03/18 09:41:09;;;;;;;11.63;7.87;;;;;;;7.65;40.62;101673.13;5069958;28;20202;-50
2022/03/18 09:43:38;;;;;;;34.73;14.77;;;;;;;7.96;40.41;101684.84;5069915;28;20235;-49
2022/03/18 09:46:08;;;;;;;34.23;13.93;;;;;;;8.05;41.25;101676.34;5083642;28;20279;-50
2022/03/18 09:48:36;;;;;;;28.13;12.20;;;;;;;8.10;40.92;101677.31;5089192;28;20257;-50
2022/03/18 09:51:03;;;;;;;40.10;16.20;;;;;;;8.15;39.46;101681.69;5080597;28;20651;-50
2022/03/18 09:53:30;;;;;;;14.87;8.30;;;;;;;8.05;39.66;101671.19;5078582;28;20571;-49
2022/03/18 09:55:57;;;;;;;14.80;8.57;;;;;;;7.52;41.15;101661.69;5079774;28;20191;-50
2022/03/18 09:58:24;;;;;;;9.07;7.10;;;;;;;7.39;41.60;101661.44;5080262;28;20619;-49
2022/03/18 10:00:57;;;;;;;121.97;40.17;;;;;;;7.65;43.26;101662.78;5086711;28;20195;-50
2022/03/18 10:03:35;;;;;;;16.90;9.17;;;;;;;7.53;41.57;101659.97;5089479;28;20195;-50
2022/03/18 10:06:04;;;;;;;10.10;7.30;;;;;;;7.44;43.35;101662.41;5090150;28;20281;-50
2022/03/18 10:08:48;;;;;;;8.23;6.70;;;;;;;7.55;44.40;101661.75;5089194;28;20233;-50
2022/03/18 10:11:18;;;;;;;7.73;6.53;;;;;;;7.69;42.90;101658.50;5088844;28;20274;-49
2022/03/18 10:13:52;;;;;;;8.60;5.70;;;;;;;7.62;41.25;101660.13;5083279;28;20305;-49
2022/03/18 10:16:32;;;;;;;7.50;6.80;;;;;;;7.39;41.49;101664.88;5089249;28;20584;-50
2022/03/18 10:18:59;;;;;;;9.83;6.60;;;;;;;7.20;42.08;101671.44;5089291;28;20207;-49
2022/03/18 10:21:26;;;;;;;7.80;6.27;;;;;;;6.97;42.19;101666.66;5089207;28;20215;-50
2022/03/18 10:24:04;;;;;;;7.47;6.03;;;;;;;6.85;41.18;101664.69;5085144;28;20692;-51
2022/03/18 10:26:35;;;;;;;9.27;6.43;;;;;;;6.54;41.17;101646.00;5085606;28;20230;-50
2022/03/18 10:29:03;;;;;;;8.60;6.80;;;;;;;6.57;42.54;101665.81;5082878;28;20219;-49
2022/03/18 10:31:32;;;;;;;8.57;7.17;;;;;;;6.79;42.67;101661.97;5085332;28;20219;-50
2022/03/18 10:39:32;;;;;;;8.27;7.07;;;;;;;7.77;42.58;101646.63;5081635;28;20306;-52
2022/03/18 10:42:02;;;;;;;8.20;6.43;;;;;;;8.21;41.55;101642.13;5084604;28;20269;-51
2022/03/18 10:44:31;;;;;;;9.60;5.90;;;;;;;8.53;40.53;101650.38;5085351;28;20614;-53
2022/03/18 10:46:59;;;;;;;9.37;6.10;;;;;;;8.52;41.05;101649.50;5087289;28;20588;-53
2022/03/18 10:49:27;;;;;;;6.57;5.83;;;;;;;8.68;40.81;101635.94;5084891;28;20221;-53
2022/03/18 10:51:54;;;;;;;6.93;6.30;;;;;;;8.30;41.38;101637.97;5088546;28;20310;-53
2022/03/18 10:54:25;;;;;;;7.03;6.40;;;;;;;8.58;40.34;101636.63;5084046;28;20778;-52
2022/03/18 10:56:54;;;;;;;9.27;6.50;;;;;;;8.73;39.86;101638.56;5088525;28;20223;-55
2022/03/18 10:59:22;;;;;;;7.10;6.00;;;;;;;8.90;38.83;101631.00;5085967;28;20605;-53
2022/03/18 11:01:51;;;;;;;10.00;5.30;;;;;;;8.79;37.62;101632.59;5086692;28;20328;-52
2022/03/18 11:04:20;;;;;;;6.43;5.33;;;;;;;8.43;37.98;101641.63;5086110;28;20741;-54
2022/03/18 11:07:29;;;;;;;5.73;5.30;;;;;;;8.08;38.42;101638.50;5088677;28;20296;-53
2022/03/18 11:12:22;;;;;;;7.27;6.43;;;;;;;7.97;40.55;101632.28;5083811;28;20212;-53
2022/03/18 11:14:52;;;;;;;7.87;6.13;;;;;;;7.97;40.77;101633.16;5086518;28;20653;-53
2022/03/18 11:17:20;;;;;;;6.83;6.13;;;;;;;8.05;42.26;101619.47;5085027;28;20296;-52
2022/03/18 11:19:49;;;;;;;6.57;5.83;;;;;;;8.21;39.63;101631.78;5086646;28;20321;-53
2022/03/18 11:22:16;;;;;;;7.13;6.53;;;;;;;8.31;39.81;101628.47;5080145;28;20296;-53
2022/03/18 11:24:44;;;;;;;7.07;5.90;;;;;;;8.09;39.29;101629.88;5091478;28;20239;-52
2022/03/18 11:27:12;;;;;;;8.47;6.67;;;;;;;8.23;38.91;101623.22;5092365;28;20219;-53
2022/03/18 11:29:40;;;;;;;7.90;6.20;;;;;;;8.41;40.31;101629.50;5091438;28;20266;-50
2022/03/18 11:32:20;;;;;;;8.20;6.50;;;;;;;8.40;41.35;101623.47;5084945;28;20227;-50
2022/03/18 11:34:51;;;;;;;10.00;7.00;;;;;;;8.36;40.46;101607.00;5090361;28;20612;-51
2022/03/18 11:37:19;;;;;;;9.30;7.03;;;;;;;8.47;40.63;101607.16;5089530;28;20668;-51
2022/03/18 11:39:47;;;;;;;10.27;7.20;;;;;;;8.33;40.73;101591.47;5092100;28;20249;-50
2022/03/18 11:42:19;;;;;;;6.70;5.93;;;;;;;8.50;40.44;101609.78;5092015;28;20282;-51
2022/03/18 11:44:55;;;;;;;7.40;5.97;;;;;;;8.56;39.51;101607.28;5089793;28;20207;-50
2022/03/18 11:47:44;;;;;;;6.73;6.07;;;;;;;8.49;39.37;101610.63;5091768;28;20689;-51
2022/03/18 11:50:47;;;;;;;6.50;5.83;;;;;;;8.28;39.48;101602.56;5090469;28;20207;-51
2022/03/18 11:53:51;;;;;;;6.03;5.40;;;;;;;8.32;38.98;101594.91;5090825;28;20205;-50